sensor_id;sensor_type;location;lat;lon;timestamp;P1;durP1;ratioP1;P2;durP2;ratioP2
68976;SDS011;56029;52.568;13.588;2023-03-13T00:00:33;16.00;;;7.30;;
68976;SDS011;56029;52.568;13.588;2023-03-13T00:03:15;17.85;;;7.22;;
68976;SDS011;56029;52.568;13.588;2023-03-13T00:05:40;17.53;;;8.03;;
68976;SDS011;56029;52.568;13.588;2023-03-13T00:08:06;14.57;;;6.70;;
68976;SDS011;56029;52.568;13.588;2023-03-13T00:10:31;16.88;;;7.65;;
68976;SDS011;56029;52.568;13.588;2023-03-13T00:12:57;17.73;;;7.13;;
68976;SDS011;56029;52.568;13.588;2023-03-13T00:15:22;16.03;;;6.63;;
68976;SDS011;56029;52.568;13.588;2023-03-13T00:17:48;14.48;;;6.78;;
68976;SDS011;56029;52.568;13.588;2023-03-13T00:20:13;18.60;;;7.33;;
68976;SDS011;56029;52.568;13.588;2023-03-13T00:22:41;18.33;;;7.43;;
68976;SDS011;56029;52.568;13.588;2023-03-13T00:25:07;19.40;;;7.27;;
68976;SDS011;56029;52.568;13.588;2023-03-13T00:27:33;17.75;;;7.10;;
68976;SDS011;56029;52.568;13.588;2023-03-13T00:29:58;16.93;;;7.20;;
68976;SDS011;56029;52.568;13.588;2023-03-13T00:32:25;15.95;;;6.82;;
68976;SDS011;56029;52.568;13.588;2023-03-13T00:34:50;15.90;;;7.10;;
68976;SDS011;56029;52.568;13.588;2023-03-13T00:37:16;17.27;;;6.63;;
68976;SDS011;56029;52.568;13.588;2023-03-13T00:39:41;17.65;;;6.57;;
68976;SDS011;56029;52.568;13.588;2023-03-13T00:42:07;16.97;;;6.50;;
68976;SDS011;56029;52.568;13.588;2023-03-13T00:44:32;18.23;;;6.77;;
68976;SDS011;56029;52.568;13.588;2023-03-13T00:46:58;16.63;;;6.90;;
68976;SDS011;56029;52.568;13.588;2023-03-13T00:49:24;18.80;;;6.90;;
68976;SDS011;56029;52.568;13.588;2023-03-13T00:51:49;16.17;;;6.60;;
68976;SDS011;56029;52.568;13.588;2023-03-13T00:54:15;18.37;;;7.10;;
68976;SDS011;56029;52.568;13.588;2023-03-13T00:56:40;18.67;;;7.13;;
68976;SDS011;56029;52.568;13.588;2023-03-13T00:59:06;18.88;;;6.60;;
68976;SDS011;56029;52.568;13.588;2023-03-13T01:01:33;17.87;;;6.67;;
68976;SDS011;56029;52.568;13.588;2023-03-13T01:04:01;18.23;;;6.55;;
68976;SDS011;56029;52.568;13.588;2023-03-13T01:06:33;18.45;;;7.07;;
68976;SDS011;56029;52.568;13.588;2023-03-13T01:09:01;18.63;;;6.70;;
68976;SDS011;56029;52.568;13.588;2023-03-13T01:11:29;16.75;;;6.72;;
68976;SDS011;56029;52.568;13.588;2023-03-13T01:13:57;18.10;;;6.82;;
68976;SDS011;56029;52.568;13.588;2023-03-13T01:16:25;15.25;;;6.35;;
68976;SDS011;56029;52.568;13.588;2023-03-13T01:18:54;15.20;;;6.63;;
68976;SDS011;56029;52.568;13.588;2023-03-13T01:21:22;18.63;;;6.70;;
68976;SDS011;56029;52.568;13.588;2023-03-13T01:23:48;18.25;;;6.93;;
68976;SDS011;56029;52.568;13.588;2023-03-13T01:26:14;16.33;;;6.82;;
68976;SDS011;56029;52.568;13.588;2023-03-13T01:28:40;13.60;;;6.30;;
68976;SDS011;56029;52.568;13.588;2023-03-13T01:31:13;18.30;;;6.60;;
68976;SDS011;56029;52.568;13.588;2023-03-13T01:33:42;17.85;;;6.03;;
68976;SDS011;56029;52.568;13.588;2023-03-13T01:36:09;16.23;;;6.47;;
68976;SDS011;56029;52.568;13.588;2023-03-13T01:38:35;18.95;;;6.60;;
68976;SDS011;56029;52.568;13.588;2023-03-13T01:41:01;15.50;;;6.10;;
68976;SDS011;56029;52.568;13.588;2023-03-13T01:43:28;17.40;;;6.73;;
68976;SDS011;56029;52.568;13.588;2023-03-13T01:48:30;14.55;;;6.30;;
68976;SDS011;56029;52.568;13.588;2023-03-13T01:51:12;17.80;;;6.65;;
68976;SDS011;56029;52.568;13.588;2023-03-13T01:53:42;18.57;;;6.63;;
68976;SDS011;56029;52.568;13.588;2023-03-13T01:56:17;19.75;;;6.60;;
68976;SDS011;56029;52.568;13.588;2023-03-13T01:58:46;16.58;;;6.43;;
68976;SDS011;56029;52.568;13.588;2023-03-13T02:01:15;19.85;;;6.68;;
68976;SDS011;56029;52.568;13.588;2023-03-13T02:03:42;16.48;;;6.88;;
68976;SDS011;56029;52.568;13.588;2023-03-13T02:06:08;17.70;;;6.20;;
68976;SDS011;56029;52.568;13.588;2023-03-13T02:08:36;19.75;;;6.55;;
68976;SDS011;56029;52.568;13.588;2023-03-13T02:11:22;16.52;;;7.00;;
68976;SDS011;56029;52.568;13.588;2023-03-13T02:13:53;19.13;;;6.90;;
68976;SDS011;56029;52.568;13.588;2023-03-13T02:16:20;16.20;;;6.80;;
68976;SDS011;56029;52.568;13.588;2023-03-13T02:18:47;16.03;;;6.67;;
68976;SDS011;56029;52.568;13.588;2023-03-13T02:21:15;15.98;;;6.75;;
68976;SDS011;56029;52.568;13.588;2023-03-13T02:23:52;17.58;;;6.68;;
68976;SDS011;56029;52.568;13.588;2023-03-13T02:26:25;14.20;;;6.70;;
68976;SDS011;56029;52.568;13.588;2023-03-13T02:28:50;19.53;;;6.93;;
68976;SDS011;56029;52.568;13.588;2023-03-13T02:31:16;16.50;;;7.13;;
68976;SDS011;56029;52.568;13.588;2023-03-13T02:33:42;15.37;;;6.50;;
68976;SDS011;56029;52.568;13.588;2023-03-13T02:36:09;18.73;;;7.53;;
68976;SDS011;56029;52.568;13.588;2023-03-13T02:38:45;15.82;;;7.18;;
68976;SDS011;56029;52.568;13.588;2023-03-13T02:41:17;18.67;;;7.38;;
68976;SDS011;56029;52.568;13.588;2023-03-13T02:43:44;16.23;;;7.17;;
68976;SDS011;56029;52.568;13.588;2023-03-13T02:48:41;16.70;;;7.75;;
68976;SDS011;56029;52.568;13.588;2023-03-13T02:51:13;13.97;;;6.63;;
68976;SDS011;56029;52.568;13.588;2023-03-13T02:53:53;16.75;;;6.85;;
68976;SDS011;56029;52.568;13.588;2023-03-13T02:56:23;19.17;;;7.18;;
68976;SDS011;56029;52.568;13.588;2023-03-13T02:58:51;15.90;;;6.68;;
68976;SDS011;56029;52.568;13.588;2023-03-13T03:01:17;18.83;;;7.05;;
68976;SDS011;56029;52.568;13.588;2023-03-13T03:03:42;19.03;;;6.97;;
68976;SDS011;56029;52.568;13.588;2023-03-13T03:06:08;18.50;;;6.87;;
68976;SDS011;56029;52.568;13.588;2023-03-13T03:08:33;16.98;;;6.57;;
68976;SDS011;56029;52.568;13.588;2023-03-13T03:11:00;16.63;;;6.50;;
68976;SDS011;56029;52.568;13.588;2023-03-13T03:13:26;16.70;;;6.63;;
68976;SDS011;56029;52.568;13.588;2023-03-13T03:15:52;16.23;;;5.80;;
68976;SDS011;56029;52.568;13.588;2023-03-13T03:18:18;16.10;;;6.33;;
68976;SDS011;56029;52.568;13.588;2023-03-13T03:20:43;18.13;;;6.15;;
68976;SDS011;56029;52.568;13.588;2023-03-13T03:23:09;15.73;;;5.63;;
68976;SDS011;56029;52.568;13.588;2023-03-13T03:25:35;13.57;;;5.85;;
68976;SDS011;56029;52.568;13.588;2023-03-13T03:28:00;16.13;;;5.67;;
68976;SDS011;56029;52.568;13.588;2023-03-13T03:30:26;14.88;;;5.85;;
68976;SDS011;56029;52.568;13.588;2023-03-13T03:32:51;13.33;;;5.50;;
68976;SDS011;56029;52.568;13.588;2023-03-13T03:35:17;15.30;;;5.47;;
68976;SDS011;56029;52.568;13.588;2023-03-13T03:37:42;12.43;;;5.18;;
68976;SDS011;56029;52.568;13.588;2023-03-13T03:40:08;13.70;;;4.93;;
68976;SDS011;56029;52.568;13.588;2023-03-13T03:42:35;11.95;;;4.97;;
68976;SDS011;56029;52.568;13.588;2023-03-13T03:45:01;13.25;;;4.97;;
68976;SDS011;56029;52.568;13.588;2023-03-13T03:47:26;15.67;;;4.93;;
68976;SDS011;56029;52.568;13.588;2023-03-13T03:49:53;10.48;;;4.30;;
68976;SDS011;56029;52.568;13.588;2023-03-13T03:52:18;13.10;;;4.90;;
68976;SDS011;56029;52.568;13.588;2023-03-13T03:54:44;13.43;;;4.22;;
68976;SDS011;56029;52.568;13.588;2023-03-13T03:57:09;11.03;;;4.47;;
68976;SDS011;56029;52.568;13.588;2023-03-13T03:59:35;11.45;;;4.03;;
68976;SDS011;56029;52.568;13.588;2023-03-13T04:02:00;13.00;;;4.10;;
68976;SDS011;56029;52.568;13.588;2023-03-13T04:04:26;12.93;;;4.17;;
68976;SDS011;56029;52.568;13.588;2023-03-13T04:06:51;15.17;;;4.10;;
68976;SDS011;56029;52.568;13.588;2023-03-13T04:09:17;13.52;;;3.88;;
68976;SDS011;56029;52.568;13.588;2023-03-13T04:11:42;13.33;;;4.17;;
68976;SDS011;56029;52.568;13.588;2023-03-13T04:14:08;12.35;;;4.10;;
68976;SDS011;56029;52.568;13.588;2023-03-13T04:16:34;12.67;;;4.30;;
68976;SDS011;56029;52.568;13.588;2023-03-13T04:19:00;11.77;;;4.22;;
68976;SDS011;56029;52.568;13.588;2023-03-13T04:21:25;12.77;;;3.83;;
68976;SDS011;56029;52.568;13.588;2023-03-13T04:23:51;10.33;;;3.80;;
68976;SDS011;56029;52.568;13.588;2023-03-13T04:26:16;12.27;;;4.13;;
68976;SDS011;56029;52.568;13.588;2023-03-13T04:28:42;12.60;;;3.60;;
68976;SDS011;56029;52.568;13.588;2023-03-13T04:31:07;14.33;;;4.67;;
68976;SDS011;56029;52.568;13.588;2023-03-13T04:33:33;11.13;;;3.97;;
68976;SDS011;56029;52.568;13.588;2023-03-13T04:36:01;13.98;;;4.07;;
68976;SDS011;56029;52.568;13.588;2023-03-13T04:38:29;11.10;;;3.53;;
68976;SDS011;56029;52.568;13.588;2023-03-13T04:40:54;11.53;;;3.90;;
68976;SDS011;56029;52.568;13.588;2023-03-13T04:43:20;12.50;;;3.43;;
68976;SDS011;56029;52.568;13.588;2023-03-13T04:45:45;11.33;;;3.77;;
68976;SDS011;56029;52.568;13.588;2023-03-13T04:48:11;11.40;;;3.50;;
68976;SDS011;56029;52.568;13.588;2023-03-13T04:50:37;10.60;;;3.80;;
68976;SDS011;56029;52.568;13.588;2023-03-13T04:53:03;10.68;;;3.40;;
68976;SDS011;56029;52.568;13.588;2023-03-13T04:55:33;12.68;;;3.78;;
68976;SDS011;56029;52.568;13.588;2023-03-13T04:57:59;13.93;;;3.73;;
68976;SDS011;56029;52.568;13.588;2023-03-13T05:00:24;12.47;;;3.47;;
68976;SDS011;56029;52.568;13.588;2023-03-13T05:02:50;13.20;;;3.70;;
68976;SDS011;56029;52.568;13.588;2023-03-13T05:05:15;14.23;;;3.77;;
68976;SDS011;56029;52.568;13.588;2023-03-13T05:07:41;15.93;;;4.45;;
68976;SDS011;56029;52.568;13.588;2023-03-13T05:10:06;11.67;;;3.83;;
68976;SDS011;56029;52.568;13.588;2023-03-13T05:12:34;12.68;;;4.00;;
68976;SDS011;56029;52.568;13.588;2023-03-13T05:14:59;10.47;;;3.87;;
68976;SDS011;56029;52.568;13.588;2023-03-13T05:17:25;14.47;;;3.43;;
68976;SDS011;56029;52.568;13.588;2023-03-13T05:19:50;12.37;;;3.80;;
68976;SDS011;56029;52.568;13.588;2023-03-13T05:22:16;16.30;;;4.07;;
68976;SDS011;56029;52.568;13.588;2023-03-13T05:24:41;17.63;;;4.20;;
68976;SDS011;56029;52.568;13.588;2023-03-13T05:27:10;12.63;;;3.80;;
68976;SDS011;56029;52.568;13.588;2023-03-13T05:29:35;11.63;;;4.35;;
68976;SDS011;56029;52.568;13.588;2023-03-13T05:32:02;17.03;;;3.73;;
68976;SDS011;56029;52.568;13.588;2023-03-13T05:34:27;14.25;;;3.75;;
68976;SDS011;56029;52.568;13.588;2023-03-13T05:36:53;17.20;;;4.70;;
68976;SDS011;56029;52.568;13.588;2023-03-13T05:39:18;12.97;;;3.80;;
68976;SDS011;56029;52.568;13.588;2023-03-13T05:41:44;16.67;;;4.38;;
68976;SDS011;56029;52.568;13.588;2023-03-13T05:44:09;10.57;;;3.40;;
68976;SDS011;56029;52.568;13.588;2023-03-13T05:46:35;14.13;;;4.95;;
68976;SDS011;56029;52.568;13.588;2023-03-13T05:49:00;12.60;;;3.57;;
68976;SDS011;56029;52.568;13.588;2023-03-13T05:51:26;11.77;;;3.90;;
68976;SDS011;56029;52.568;13.588;2023-03-13T05:53:51;15.20;;;4.07;;
68976;SDS011;56029;52.568;13.588;2023-03-13T05:56:17;12.75;;;4.30;;
68976;SDS011;56029;52.568;13.588;2023-03-13T05:58:43;11.83;;;3.90;;
68976;SDS011;56029;52.568;13.588;2023-03-13T06:01:09;16.13;;;4.50;;
68976;SDS011;56029;52.568;13.588;2023-03-13T06:03:36;11.63;;;4.03;;
68976;SDS011;56029;52.568;13.588;2023-03-13T06:06:02;12.20;;;3.72;;
68976;SDS011;56029;52.568;13.588;2023-03-13T06:08:27;14.53;;;4.40;;
68976;SDS011;56029;52.568;13.588;2023-03-13T06:10:53;13.77;;;3.72;;
68976;SDS011;56029;52.568;13.588;2023-03-13T06:13:19;14.80;;;4.17;;
68976;SDS011;56029;52.568;13.588;2023-03-13T06:15:49;14.90;;;4.28;;
68976;SDS011;56029;52.568;13.588;2023-03-13T06:18:17;20.05;;;4.38;;
68976;SDS011;56029;52.568;13.588;2023-03-13T06:20:42;14.80;;;4.20;;
68976;SDS011;56029;52.568;13.588;2023-03-13T06:23:08;11.50;;;3.63;;
68976;SDS011;56029;52.568;13.588;2023-03-13T06:25:34;20.43;;;5.23;;
68976;SDS011;56029;52.568;13.588;2023-03-13T06:28:00;16.80;;;4.77;;
68976;SDS011;56029;52.568;13.588;2023-03-13T06:30:25;13.10;;;3.60;;
68976;SDS011;56029;52.568;13.588;2023-03-13T06:32:51;11.95;;;3.70;;
68976;SDS011;56029;52.568;13.588;2023-03-13T06:35:17;11.50;;;4.30;;
68976;SDS011;56029;52.568;13.588;2023-03-13T06:37:42;12.23;;;4.33;;
68976;SDS011;56029;52.568;13.588;2023-03-13T06:40:08;12.32;;;3.97;;
68976;SDS011;56029;52.568;13.588;2023-03-13T06:42:37;14.07;;;3.60;;
68976;SDS011;56029;52.568;13.588;2023-03-13T06:45:02;13.70;;;4.27;;
68976;SDS011;56029;52.568;13.588;2023-03-13T06:47:32;11.93;;;4.30;;
68976;SDS011;56029;52.568;13.588;2023-03-13T06:50:04;15.07;;;3.83;;
68976;SDS011;56029;52.568;13.588;2023-03-13T06:52:30;14.82;;;3.65;;
68976;SDS011;56029;52.568;13.588;2023-03-13T06:54:56;10.60;;;3.93;;
68976;SDS011;56029;52.568;13.588;2023-03-13T06:57:21;14.70;;;3.67;;
68976;SDS011;56029;52.568;13.588;2023-03-13T06:59:47;16.15;;;3.90;;
68976;SDS011;56029;52.568;13.588;2023-03-13T07:02:12;14.33;;;4.47;;
68976;SDS011;56029;52.568;13.588;2023-03-13T07:04:39;22.02;;;4.57;;
68976;SDS011;56029;52.568;13.588;2023-03-13T07:07:05;11.47;;;3.77;;
68976;SDS011;56029;52.568;13.588;2023-03-13T07:09:31;13.02;;;4.18;;
68976;SDS011;56029;52.568;13.588;2023-03-13T07:11:56;13.20;;;4.03;;
68976;SDS011;56029;52.568;13.588;2023-03-13T07:14:23;13.45;;;3.70;;
68976;SDS011;56029;52.568;13.588;2023-03-13T07:16:48;14.57;;;4.13;;
68976;SDS011;56029;52.568;13.588;2023-03-13T07:19:14;14.18;;;4.20;;
68976;SDS011;56029;52.568;13.588;2023-03-13T07:21:40;10.23;;;3.73;;
68976;SDS011;56029;52.568;13.588;2023-03-13T07:24:06;15.90;;;3.92;;
68976;SDS011;56029;52.568;13.588;2023-03-13T07:26:31;17.08;;;4.03;;
68976;SDS011;56029;52.568;13.588;2023-03-13T07:28:57;15.33;;;3.77;;
68976;SDS011;56029;52.568;13.588;2023-03-13T07:31:22;13.87;;;4.00;;
68976;SDS011;56029;52.568;13.588;2023-03-13T07:33:49;13.93;;;3.67;;
68976;SDS011;56029;52.568;13.588;2023-03-13T07:36:20;15.45;;;4.68;;
68976;SDS011;56029;52.568;13.588;2023-03-13T07:38:47;13.75;;;3.90;;
68976;SDS011;56029;52.568;13.588;2023-03-13T07:41:13;13.18;;;4.40;;
68976;SDS011;56029;52.568;13.588;2023-03-13T07:43:39;17.63;;;4.10;;
68976;SDS011;56029;52.568;13.588;2023-03-13T07:46:05;15.90;;;4.60;;
68976;SDS011;56029;52.568;13.588;2023-03-13T07:48:33;14.65;;;3.65;;
68976;SDS011;56029;52.568;13.588;2023-03-13T07:51:00;13.67;;;4.23;;
68976;SDS011;56029;52.568;13.588;2023-03-13T07:53:27;11.55;;;3.90;;
68976;SDS011;56029;52.568;13.588;2023-03-13T07:56:03;12.60;;;3.63;;
68976;SDS011;56029;52.568;13.588;2023-03-13T07:58:32;13.57;;;3.85;;
68976;SDS011;56029;52.568;13.588;2023-03-13T08:00:59;16.67;;;3.90;;
68976;SDS011;56029;52.568;13.588;2023-03-13T08:03:25;14.57;;;3.47;;
68976;SDS011;56029;52.568;13.588;2023-03-13T08:06:08;11.65;;;4.50;;
68976;SDS011;56029;52.568;13.588;2023-03-13T08:08:35;11.60;;;3.72;;
68976;SDS011;56029;52.568;13.588;2023-03-13T08:11:08;12.27;;;3.78;;
68976;SDS011;56029;52.568;13.588;2023-03-13T08:13:36;16.33;;;4.03;;
68976;SDS011;56029;52.568;13.588;2023-03-13T08:16:03;12.53;;;4.00;;
68976;SDS011;56029;52.568;13.588;2023-03-13T08:18:37;15.10;;;3.67;;
68976;SDS011;56029;52.568;13.588;2023-03-13T08:21:08;14.45;;;4.20;;
68976;SDS011;56029;52.568;13.588;2023-03-13T08:23:35;12.43;;;4.07;;
68976;SDS011;56029;52.568;13.588;2023-03-13T08:26:09;16.80;;;3.85;;
68976;SDS011;56029;52.568;13.588;2023-03-13T08:28:37;15.57;;;4.00;;
68976;SDS011;56029;52.568;13.588;2023-03-13T08:31:13;14.05;;;3.67;;
68976;SDS011;56029;52.568;13.588;2023-03-13T08:33:41;10.27;;;3.53;;
68976;SDS011;56029;52.568;13.588;2023-03-13T08:36:12;14.33;;;3.80;;
68976;SDS011;56029;52.568;13.588;2023-03-13T08:38:39;16.13;;;3.72;;
68976;SDS011;56029;52.568;13.588;2023-03-13T08:41:09;11.38;;;3.80;;
68976;SDS011;56029;52.568;13.588;2023-03-13T08:43:36;16.35;;;3.92;;
68976;SDS011;56029;52.568;13.588;2023-03-13T08:46:02;14.27;;;4.30;;
68976;SDS011;56029;52.568;13.588;2023-03-13T08:48:28;13.18;;;3.90;;
68976;SDS011;56029;52.568;13.588;2023-03-13T08:51:03;14.97;;;4.00;;
68976;SDS011;56029;52.568;13.588;2023-03-13T08:53:34;15.68;;;3.90;;
68976;SDS011;56029;52.568;13.588;2023-03-13T08:56:01;9.45;;;3.70;;
68976;SDS011;56029;52.568;13.588;2023-03-13T08:58:28;12.55;;;4.05;;
68976;SDS011;56029;52.568;13.588;2023-03-13T09:01:00;10.90;;;3.33;;
68976;SDS011;56029;52.568;13.588;2023-03-13T09:03:26;8.98;;;3.65;;
68976;SDS011;56029;52.568;13.588;2023-03-13T09:05:52;11.07;;;3.42;;
68976;SDS011;56029;52.568;13.588;2023-03-13T09:08:18;11.17;;;3.50;;
68976;SDS011;56029;52.568;13.588;2023-03-13T09:10:43;13.10;;;3.28;;
68976;SDS011;56029;52.568;13.588;2023-03-13T09:13:09;10.47;;;3.07;;
68976;SDS011;56029;52.568;13.588;2023-03-13T09:15:34;11.93;;;3.67;;
68976;SDS011;56029;52.568;13.588;2023-03-13T09:18:00;14.65;;;3.50;;
68976;SDS011;56029;52.568;13.588;2023-03-13T09:20:25;13.00;;;4.47;;
68976;SDS011;56029;52.568;13.588;2023-03-13T09:22:51;10.60;;;3.50;;
68976;SDS011;56029;52.568;13.588;2023-03-13T09:25:16;9.85;;;3.60;;
68976;SDS011;56029;52.568;13.588;2023-03-13T09:27:42;10.73;;;3.20;;
68976;SDS011;56029;52.568;13.588;2023-03-13T09:30:08;10.87;;;3.30;;
68976;SDS011;56029;52.568;13.588;2023-03-13T09:32:34;9.95;;;3.25;;
68976;SDS011;56029;52.568;13.588;2023-03-13T09:34:59;9.40;;;3.20;;
68976;SDS011;56029;52.568;13.588;2023-03-13T09:37:25;12.73;;;3.47;;
68976;SDS011;56029;52.568;13.588;2023-03-13T09:39:51;12.47;;;3.50;;
68976;SDS011;56029;52.568;13.588;2023-03-13T09:44:53;9.45;;;2.95;;
68976;SDS011;56029;52.568;13.588;2023-03-13T09:47:25;8.10;;;3.20;;
68976;SDS011;56029;52.568;13.588;2023-03-13T09:49:57;11.57;;;2.78;;
68976;SDS011;56029;52.568;13.588;2023-03-13T09:52:30;8.35;;;3.03;;
68976;SDS011;56029;52.568;13.588;2023-03-13T09:55:04;10.40;;;3.20;;
68976;SDS011;56029;52.568;13.588;2023-03-13T09:57:44;11.07;;;3.53;;
68976;SDS011;56029;52.568;13.588;2023-03-13T10:00:17;8.87;;;3.30;;
68976;SDS011;56029;52.568;13.588;2023-03-13T10:03:06;8.40;;;3.00;;
68976;SDS011;56029;52.568;13.588;2023-03-13T10:05:42;8.75;;;3.08;;
68976;SDS011;56029;52.568;13.588;2023-03-13T10:08:14;10.20;;;2.97;;
68976;SDS011;56029;52.568;13.588;2023-03-13T10:10:42;10.32;;;3.22;;
68976;SDS011;56029;52.568;13.588;2023-03-13T10:13:21;9.03;;;3.23;;
68976;SDS011;56029;52.568;13.588;2023-03-13T10:15:55;9.60;;;3.10;;
68976;SDS011;56029;52.568;13.588;2023-03-13T10:18:25;9.25;;;2.90;;
68976;SDS011;56029;52.568;13.588;2023-03-13T10:21:33;11.33;;;2.80;;
68976;SDS011;56029;52.568;13.588;2023-03-13T10:23:50;8.13;;;2.80;;
68976;SDS011;56029;52.568;13.588;2023-03-13T10:26:33;7.55;;;2.83;;
68976;SDS011;56029;52.568;13.588;2023-03-13T10:29:11;8.25;;;2.60;;
68976;SDS011;56029;52.568;13.588;2023-03-13T10:32:00;7.82;;;2.80;;
68976;SDS011;56029;52.568;13.588;2023-03-13T10:34:29;7.43;;;2.90;;
68976;SDS011;56029;52.568;13.588;2023-03-13T10:37:15;7.30;;;2.55;;
68976;SDS011;56029;52.568;13.588;2023-03-13T10:39:44;8.07;;;2.80;;
68976;SDS011;56029;52.568;13.588;2023-03-13T10:42:10;7.30;;;2.50;;
68976;SDS011;56029;52.568;13.588;2023-03-13T10:44:45;8.77;;;2.30;;
68976;SDS011;56029;52.568;13.588;2023-03-13T10:47:11;6.17;;;2.23;;
68976;SDS011;56029;52.568;13.588;2023-03-13T10:49:48;5.97;;;2.55;;
68976;SDS011;56029;52.568;13.588;2023-03-13T10:52:28;6.53;;;2.28;;
68976;SDS011;56029;52.568;13.588;2023-03-13T10:55:04;6.63;;;2.30;;
68976;SDS011;56029;52.568;13.588;2023-03-13T10:57:32;5.72;;;2.40;;
68976;SDS011;56029;52.568;13.588;2023-03-13T10:59:59;7.30;;;2.60;;
68976;SDS011;56029;52.568;13.588;2023-03-13T11:02:46;5.85;;;2.10;;
68976;SDS011;56029;52.568;13.588;2023-03-13T11:07:49;5.57;;;2.33;;
68976;SDS011;56029;52.568;13.588;2023-03-13T11:12:45;5.57;;;2.13;;
68976;SDS011;56029;52.568;13.588;2023-03-13T11:15:17;4.68;;;2.03;;
68976;SDS011;56029;52.568;13.588;2023-03-13T11:18:11;5.82;;;2.13;;
68976;SDS011;56029;52.568;13.588;2023-03-13T11:20:38;4.60;;;2.33;;
68976;SDS011;56029;52.568;13.588;2023-03-13T11:26:05;4.82;;;1.92;;
68976;SDS011;56029;52.568;13.588;2023-03-13T11:28:51;3.97;;;2.00;;
68976;SDS011;56029;52.568;13.588;2023-03-13T11:31:29;4.10;;;2.13;;
68976;SDS011;56029;52.568;13.588;2023-03-13T11:36:59;4.95;;;1.95;;
68976;SDS011;56029;52.568;13.588;2023-03-13T11:47:37;5.03;;;2.10;;
68976;SDS011;56029;52.568;13.588;2023-03-13T11:53:06;2.63;;;1.60;;
68976;SDS011;56029;52.568;13.588;2023-03-13T11:55:46;2.75;;;1.80;;
68976;SDS011;56029;52.568;13.588;2023-03-13T11:58:47;5.43;;;1.80;;
68976;SDS011;56029;52.568;13.588;2023-03-13T12:01:37;3.28;;;1.77;;
68976;SDS011;56029;52.568;13.588;2023-03-13T12:04:22;2.88;;;1.60;;
68976;SDS011;56029;52.568;13.588;2023-03-13T12:06:50;2.40;;;1.43;;
68976;SDS011;56029;52.568;13.588;2023-03-13T12:14:52;4.50;;;1.70;;
68976;SDS011;56029;52.568;13.588;2023-03-13T12:17:31;3.50;;;1.50;;
68976;SDS011;56029;52.568;13.588;2023-03-13T12:20:05;3.43;;;1.50;;
68976;SDS011;56029;52.568;13.588;2023-03-13T12:22:40;3.60;;;1.50;;
68976;SDS011;56029;52.568;13.588;2023-03-13T12:25:29;2.75;;;1.42;;
68976;SDS011;56029;52.568;13.588;2023-03-13T12:33:41;4.20;;;1.60;;
68976;SDS011;56029;52.568;13.588;2023-03-13T12:38:55;3.17;;;1.40;;
68976;SDS011;56029;52.568;13.588;2023-03-13T12:41:39;2.25;;;1.27;;
68976;SDS011;56029;52.568;13.588;2023-03-13T12:44:08;3.75;;;1.33;;
68976;SDS011;56029;52.568;13.588;2023-03-13T12:46:45;2.10;;;1.40;;
68976;SDS011;56029;52.568;13.588;2023-03-13T12:49:26;3.40;;;1.20;;
68976;SDS011;56029;52.568;13.588;2023-03-13T12:51:59;2.28;;;1.42;;
68976;SDS011;56029;52.568;13.588;2023-03-13T13:00:45;3.23;;;1.20;;
68976;SDS011;56029;52.568;13.588;2023-03-13T13:03:17;2.70;;;1.38;;
68976;SDS011;56029;52.568;13.588;2023-03-13T13:05:58;2.22;;;1.48;;
68976;SDS011;56029;52.568;13.588;2023-03-13T13:08:25;2.92;;;1.38;;
68976;SDS011;56029;52.568;13.588;2023-03-13T13:10:51;2.03;;;1.30;;
68976;SDS011;56029;52.568;13.588;2023-03-13T13:13:29;2.53;;;1.43;;
68976;SDS011;56029;52.568;13.588;2023-03-13T13:16:05;2.60;;;1.20;;
68976;SDS011;56029;52.568;13.588;2023-03-13T13:18:36;2.50;;;1.40;;
68976;SDS011;56029;52.568;13.588;2023-03-13T13:23:28;2.60;;;1.40;;
68976;SDS011;56029;52.568;13.588;2023-03-13T13:28:57;4.05;;;1.48;;
68976;SDS011;56029;52.568;13.588;2023-03-13T13:37:01;2.60;;;1.23;;
68976;SDS011;56029;52.568;13.588;2023-03-13T13:39:47;2.45;;;1.30;;
68976;SDS011;56029;52.568;13.588;2023-03-13T13:47:25;1.85;;;1.10;;
68976;SDS011;56029;52.568;13.588;2023-03-13T13:49:53;3.30;;;1.30;;
68976;SDS011;56029;52.568;13.588;2023-03-13T13:52:31;2.35;;;1.10;;
68976;SDS011;56029;52.568;13.588;2023-03-13T13:55:03;2.53;;;1.35;;
68976;SDS011;56029;52.568;13.588;2023-03-13T13:57:50;2.03;;;1.25;;
68976;SDS011;56029;52.568;13.588;2023-03-13T14:00:26;1.55;;;1.23;;
68976;SDS011;56029;52.568;13.588;2023-03-13T14:02:57;2.67;;;1.30;;
68976;SDS011;56029;52.568;13.588;2023-03-13T14:05:27;2.63;;;1.27;;
68976;SDS011;56029;52.568;13.588;2023-03-13T14:07:58;3.10;;;1.50;;
68976;SDS011;56029;52.568;13.588;2023-03-13T14:13:37;2.07;;;1.40;;
68976;SDS011;56029;52.568;13.588;2023-03-13T14:15:56;2.30;;;1.20;;
68976;SDS011;56029;52.568;13.588;2023-03-13T14:18:28;2.30;;;1.30;;
68976;SDS011;56029;52.568;13.588;2023-03-13T14:23:37;3.90;;;1.38;;
68976;SDS011;56029;52.568;13.588;2023-03-13T14:26:12;2.97;;;1.65;;
68976;SDS011;56029;52.568;13.588;2023-03-13T14:28:49;3.42;;;1.70;;
68976;SDS011;56029;52.568;13.588;2023-03-13T14:31:28;3.00;;;1.52;;
68976;SDS011;56029;52.568;13.588;2023-03-13T14:33:55;2.53;;;1.43;;
68976;SDS011;56029;52.568;13.588;2023-03-13T14:36:23;4.40;;;1.63;;
68976;SDS011;56029;52.568;13.588;2023-03-13T14:38:55;2.70;;;1.58;;
68976;SDS011;56029;52.568;13.588;2023-03-13T14:41:36;4.32;;;2.25;;
68976;SDS011;56029;52.568;13.588;2023-03-13T14:44:13;4.20;;;1.67;;
68976;SDS011;56029;52.568;13.588;2023-03-13T14:46:46;2.93;;;1.50;;
68976;SDS011;56029;52.568;13.588;2023-03-13T14:49:18;2.92;;;1.65;;
68976;SDS011;56029;52.568;13.588;2023-03-13T14:51:48;4.00;;;1.53;;
68976;SDS011;56029;52.568;13.588;2023-03-13T14:54:30;2.97;;;1.55;;
68976;SDS011;56029;52.568;13.588;2023-03-13T14:57:02;2.25;;;1.40;;
68976;SDS011;56029;52.568;13.588;2023-03-13T14:59:30;2.67;;;1.52;;
68976;SDS011;56029;52.568;13.588;2023-03-13T15:01:59;4.77;;;1.60;;
68976;SDS011;56029;52.568;13.588;2023-03-13T15:07:20;3.03;;;1.58;;
68976;SDS011;56029;52.568;13.588;2023-03-13T15:09:46;2.80;;;1.40;;
68976;SDS011;56029;52.568;13.588;2023-03-13T15:12:15;3.27;;;1.50;;
68976;SDS011;56029;52.568;13.588;2023-03-13T15:14:43;3.78;;;1.35;;
68976;SDS011;56029;52.568;13.588;2023-03-13T15:19:39;2.40;;;1.42;;
68976;SDS011;56029;52.568;13.588;2023-03-13T15:22:04;3.47;;;1.63;;
68976;SDS011;56029;52.568;13.588;2023-03-13T15:24:30;3.38;;;1.40;;
68976;SDS011;56029;52.568;13.588;2023-03-13T15:26:56;4.67;;;1.70;;
68976;SDS011;56029;52.568;13.588;2023-03-13T15:29:21;3.67;;;1.70;;
68976;SDS011;56029;52.568;13.588;2023-03-13T15:31:47;2.65;;;1.50;;
68976;SDS011;56029;52.568;13.588;2023-03-13T15:34:12;2.50;;;1.60;;
68976;SDS011;56029;52.568;13.588;2023-03-13T15:36:39;3.47;;;1.58;;
68976;SDS011;56029;52.568;13.588;2023-03-13T15:39:09;4.43;;;1.83;;
68976;SDS011;56029;52.568;13.588;2023-03-13T15:41:38;3.70;;;1.58;;
68976;SDS011;56029;52.568;13.588;2023-03-13T15:44:04;3.87;;;1.67;;
68976;SDS011;56029;52.568;13.588;2023-03-13T15:46:29;3.70;;;1.53;;
68976;SDS011;56029;52.568;13.588;2023-03-13T15:48:55;3.13;;;1.70;;
68976;SDS011;56029;52.568;13.588;2023-03-13T15:51:20;2.30;;;1.40;;
68976;SDS011;56029;52.568;13.588;2023-03-13T15:53:46;2.63;;;1.50;;